Welcome to Northern Hawkes Bay. New Zealand.
PWS Header
      nz Flag



Hit Counter


W3C Valid W3C Valid logo


    Wairoa

Select any of the Stations below to visit their websites.










Historic Data from Weather Underground
Select the location of interest below. Wairoa is the default. Please have patience, this Data is slow to load in.
Northern Hawkes Bay Historical Data
Daily Summary for May 30, 2017 Units:  Metric    English   Both
« Previous Day
Next Day »
Daily Weekly Monthly Yearly Custom
  High: Low: Average:
Temperature: 20.5 °C 7.9 °C 11.9 °C
Dew Point: 13.3 °C 7.4 °C 10.1 °C
Humidity: 99% 59% 90%
Wind Speed: 11.1km/h 0.0km/h 3.9km/h
Wind Gust: 18.3km/h - -
Wind- - West
Pressure: 1018.8 hPa 1014.4 hPa -
Precipitation: 0.0 mm    
Historical Graphs
 
 
Tabular Data for May 30, 2017
Time Temperature Dew Point Pressure Wind Wind Speed Wind Gust Humidity Rainfall Rate (Hourly) solar
00:01 11.4 °C 11.1 °C 1018.8 hPa NW 1.1 km/h 5.0 km/h 98% 0.0 mm 0 W/m2
00:06 11.4 °C 11.1 °C 1018.8 hPa NW 2.6 km/h 3.5 km/h 98% 0.0 mm 0 W/m2
00:11 11.3 °C 11.0 °C 1018.5 hPa NNW 1.1 km/h 3.5 km/h 98% 0.0 mm 0 W/m2
00:16 11.3 °C 11.0 °C 1018.8 hPa NNW 1.1 km/h 3.5 km/h 98% 0.0 mm 0 W/m2
00:21 11.2 °C 10.9 °C 1018.5 hPa NNW 1.1 km/h 3.5 km/h 98% 0.0 mm 0 W/m2
00:26 11.2 °C 10.9 °C 1018.8 hPa NW 2.6 km/h 3.5 km/h 98% 0.0 mm 0 W/m2
00:31 11.1 °C 10.8 °C 1018.5 hPa NW 1.1 km/h 5.0 km/h 98% 0.0 mm 0 W/m2
00:36 11.1 °C 10.8 °C 1018.5 hPa NNW 1.1 km/h 5.0 km/h 98% 0.0 mm 0 W/m2
00:41 11.1 °C 10.8 °C 1018.5 hPa North 1.1 km/h 3.5 km/h 98% 0.0 mm 0 W/m2
00:46 11.1 °C 10.8 °C 1018.2 hPa North 1.1 km/h 2.6 km/h 98% 0.0 mm 0 W/m2
00:51 11.0 °C 10.7 °C 1018.2 hPa NNW 1.1 km/h 3.5 km/h 98% 0.0 mm 0 W/m2
00:56 11.0 °C 10.7 °C 1018.2 hPa NW 2.6 km/h 3.5 km/h 98% 0.0 mm 0 W/m2
01:01 10.9 °C 10.8 °C 1018.2 hPa NW 2.6 km/h 3.5 km/h 99% 0.0 mm 0 W/m2
01:06 10.8 °C 10.7 °C 1018.2 hPa NW 2.6 km/h 5.0 km/h 99% 0.0 mm 0 W/m2
01:11 10.8 °C 10.7 °C 1018.2 hPa NW 2.6 km/h 5.0 km/h 99% 0.0 mm 0 W/m2
01:16 10.7 °C 10.6 °C 1018.2 hPa NW 3.5 km/h 5.0 km/h 99% 0.0 mm 0 W/m2
01:21 10.7 °C 10.6 °C 1018.2 hPa NW 2.6 km/h 5.0 km/h 99% 0.0 mm 0 W/m2
01:26 10.7 °C 10.6 °C 1018.2 hPa NW 5.0 km/h 7.2 km/h 99% 0.0 mm 0 W/m2
01:31 10.6 °C 10.4 °C 1018.2 hPa NW 5.0 km/h 8.7 km/h 99% 0.0 mm 0 W/m2
01:36 10.6 °C 10.4 °C 1018.2 hPa NNW 3.5 km/h 8.7 km/h 99% 0.0 mm 0 W/m2
01:41 10.6 °C 10.4 °C 1018.2 hPa NNW 3.5 km/h 7.2 km/h 99% 0.0 mm 0 W/m2
01:46 10.6 °C 10.4 °C 1018.2 hPa NNW 2.6 km/h 6.1 km/h 99% 0.0 mm 0 W/m2
01:51 10.5 °C 10.3 °C 1018.2 hPa NNW 3.5 km/h 6.1 km/h 99% 0.0 mm 0 W/m2
01:56 10.5 °C 10.3 °C 1018.2 hPa NNW 2.6 km/h 6.1 km/h 99% 0.0 mm 0 W/m2
02:01 10.3 °C 10.2 °C 1018.2 hPa NNW 3.5 km/h 6.1 km/h 99% 0.0 mm 0 W/m2
02:06 10.2 °C 10.1 °C 1018.2 hPa NW 3.5 km/h 6.1 km/h 99% 0.0 mm 0 W/m2
02:11 10.1 °C 9.9 °C 1018.2 hPa NW 3.5 km/h 6.1 km/h 99% 0.0 mm 0 W/m2
02:16 10.0 °C 9.8 °C 1018.2 hPa NW 3.5 km/h 7.2 km/h 99% 0.0 mm 0 W/m2
02:21 10.0 °C 9.8 °C 1018.2 hPa NNW 7.2 km/h 11.1 km/h 99% 0.0 mm 0 W/m2
02:26 10.0 °C 9.8 °C 1018.2 hPa NNW 5.0 km/h 11.1 km/h 99% 0.0 mm 0 W/m2
02:31 9.9 °C 9.8 °C 1018.2 hPa NW 7.2 km/h 11.1 km/h 99% 0.0 mm 0 W/m2
02:36 9.9 °C 9.8 °C 1018.2 hPa NNW 5.0 km/h 11.1 km/h 99% 0.0 mm 0 W/m2
02:41 10.0 °C 9.8 °C 1018.2 hPa NNW 5.0 km/h 9.7 km/h 99% 0.0 mm 0 W/m2
02:46 10.0 °C 9.8 °C 1018.2 hPa NNW 6.1 km/h 9.7 km/h 99% 0.0 mm 0 W/m2
02:51 10.0 °C 9.8 °C 1018.2 hPa NNW 5.0 km/h 9.7 km/h 99% 0.0 mm 0 W/m2
02:56 10.0 °C 9.8 °C 1018.2 hPa NNW 5.0 km/h 9.7 km/h 99% 0.0 mm 0 W/m2
03:14 10.1 °C 9.9 °C 1017.8 hPa North 2.6 km/h 8.7 km/h 99% 0.0 mm 0 W/m2
03:19 10.0 °C 9.8 °C 1017.8 hPa NNW 3.5 km/h 9.7 km/h 99% 0.0 mm 0 W/m2
03:24 10.0 °C 9.8 °C 1017.5 hPa NNW 3.5 km/h 11.1 km/h 99% 0.0 mm 0 W/m2
03:29 9.9 °C 9.8 °C 1017.5 hPa NNW 6.1 km/h 12.2 km/h 99% 0.0 mm 0 W/m2
03:34 9.8 °C 9.7 °C 1017.5 hPa NNW 6.1 km/h 12.2 km/h 99% 0.0 mm 0 W/m2
04:07 9.5 °C 9.3 °C 1017.5 hPa NNW 5.0 km/h 11.1 km/h 99% 0.0 mm 0 W/m2
04:12 9.4 °C 9.3 °C 1017.2 hPa NNW 6.1 km/h 9.7 km/h 99% 0.0 mm 0 W/m2
04:17 9.3 °C 9.2 °C 1017.5 hPa NNW 7.2 km/h 12.2 km/h 99% 0.0 mm 0 W/m2
04:22 9.3 °C 9.2 °C 1017.5 hPa NNW 3.5 km/h 12.2 km/h 99% 0.0 mm 0 W/m2
04:27 9.2 °C 9.1 °C 1017.5 hPa NNW 5.0 km/h 12.2 km/h 99% 0.0 mm 0 W/m2
04:32 9.2 °C 9.1 °C 1017.5 hPa NNW 2.6 km/h 7.2 km/h 99% 0.0 mm 0 W/m2
04:37 9.2 °C 9.1 °C 1017.2 hPa NNW 5.0 km/h 7.2 km/h 99% 0.0 mm 0 W/m2
04:42 9.1 °C 8.9 °C 1017.2 hPa NNW 3.5 km/h 7.2 km/h 99% 0.0 mm 0 W/m2
05:00 8.9 °C 8.8 °C 1017.2 hPa NNW 5.0 km/h 7.2 km/h 99% 0.0 mm 0 W/m2
05:05 9.0 °C 8.8 °C 1017.5 hPa NNW 6.1 km/h 7.2 km/h 99% 0.0 mm 0 W/m2
05:10 9.1 °C 8.9 °C 1017.5 hPa NNW 9.7 km/h 11.1 km/h 99% 0.0 mm 0 W/m2
05:15 9.1 °C 8.9 °C 1017.5 hPa NNW 3.5 km/h 11.1 km/h 99% 0.0 mm 0 W/m2
05:20 9.0 °C 8.8 °C 1017.2 hPa NNW 6.1 km/h 9.7 km/h 99% 0.0 mm 0 W/m2
05:26 9.0 °C 8.8 °C 1017.2 hPa NNW 5.0 km/h 9.7 km/h 99% 0.0 mm 0 W/m2
05:31 9.0 °C 8.8 °C 1017.5 hPa NNW 6.1 km/h 11.1 km/h 99% 0.0 mm 0 W/m2
05:36 9.0 °C 8.8 °C 1017.5 hPa North 8.7 km/h 11.1 km/h 99% 0.0 mm 0 W/m2
05:41 8.9 °C 8.8 °C 1017.2 hPa North 5.0 km/h 13.4 km/h 99% 0.0 mm 0 W/m2
05:46 8.9 °C 8.8 °C 1017.5 hPa North 6.1 km/h 13.4 km/h 99% 0.0 mm 0 W/m2
05:52 8.9 °C 8.8 °C 1017.2 hPa NNW 5.0 km/h 12.2 km/h 99% 0.0 mm 0 W/m2
05:57 8.8 °C 8.7 °C 1017.5 hPa NW 6.1 km/h 8.7 km/h 99% 0.0 mm 0 W/m2
06:02 8.8 °C 8.7 °C 1017.5 hPa NW 6.1 km/h 9.7 km/h 99% 0.0 mm 0 W/m2
06:07 8.8 °C 8.7 °C 1017.2 hPa NW 5.0 km/h 9.7 km/h 99% 0.0 mm 0 W/m2
06:12 8.8 °C 8.7 °C 1017.5 hPa NNW 3.5 km/h 9.7 km/h 99% 0.0 mm 0 W/m2
06:17 8.8 °C 8.7 °C 1017.2 hPa NNW 5.0 km/h 9.7 km/h 99% 0.0 mm 0 W/m2
06:22 8.8 °C 8.7 °C 1017.5 hPa NNW 3.5 km/h 9.7 km/h 99% 0.0 mm 0 W/m2
06:27 8.7 °C 8.6 °C 1017.5 hPa NNW 5.0 km/h 9.7 km/h 99% 0.0 mm 0 W/m2
06:32 8.6 °C 8.4 °C 1017.5 hPa NNW 6.1 km/h 8.7 km/h 99% 0.0 mm 0 W/m2
06:37 8.5 °C 8.3 °C 1017.5 hPa NNW 5.0 km/h 8.7 km/h 99% 0.0 mm 0 W/m2
06:42 8.5 °C 8.3 °C 1017.5 hPa NW 5.0 km/h 8.7 km/h 99% 0.0 mm 0 W/m2
06:52 8.3 °C 8.2 °C 1017.5 hPa North 5.0 km/h 8.7 km/h 99% 0.0 mm 0 W/m2
06:57 8.2 °C 8.1 °C 1017.5 hPa NNW 6.1 km/h 11.1 km/h 99% 0.0 mm 0 W/m2
07:02 8.2 °C 8.1 °C 1017.5 hPa NNW 6.1 km/h 11.1 km/h 99% 0.0 mm 0 W/m2
07:07 8.2 °C 8.1 °C 1017.5 hPa NNW 3.5 km/h 11.1 km/h 99% 0.0 mm 0 W/m2
07:12 8.1 °C 7.9 °C 1017.5 hPa NNW 6.1 km/h 11.1 km/h 99% 0.0 mm 1 W/m2
07:17 8.1 °C 7.9 °C 1017.8 hPa NNW 6.1 km/h 11.1 km/h 99% 0.0 mm 3 W/m2
07:22 8.1 °C 7.9 °C 1017.8 hPa NNW 6.1 km/h 11.1 km/h 99% 0.0 mm 5 W/m2
07:27 8.0 °C 7.8 °C 1017.8 hPa NNW 6.1 km/h 9.7 km/h 99% 0.0 mm 7 W/m2
07:32 7.9 °C 7.4 °C 1017.8 hPa NW 5.0 km/h 11.1 km/h 97% 0.0 mm 10 W/m2
07:37 7.9 °C 7.4 °C 1017.8 hPa NNW 6.1 km/h 11.1 km/h 97% 0.0 mm 12 W/m2
07:42 8.0 °C 7.8 °C 1017.8 hPa NNW 6.1 km/h 11.1 km/h 99% 0.0 mm 17 W/m2
07:47 8.0 °C 7.8 °C 1017.8 hPa NNW 6.1 km/h 11.1 km/h 99% 0.0 mm 20 W/m2
07:52 8.1 °C 7.9 °C 1017.8 hPa NNW 5.0 km/h 9.7 km/h 99% 0.0 mm 80 W/m2
07:57 8.3 °C 8.2 °C 1017.8 hPa NNW 6.1 km/h 9.7 km/h 99% 0.0 mm 40 W/m2
08:02 8.6 °C 8.4 °C 1017.8 hPa NNW 5.0 km/h 9.7 km/h 99% 0.0 mm 112 W/m2
08:07 8.6 °C 8.4 °C 1017.8 hPa NNW 5.0 km/h 11.1 km/h 99% 0.0 mm 94 W/m2
08:12 8.7 °C 8.6 °C 1017.8 hPa NNW 3.5 km/h 11.1 km/h 99% 0.0 mm 120 W/m2
08:17 8.9 °C 8.8 °C 1017.8 hPa NNW 5.0 km/h 11.1 km/h 99% 0.0 mm 139 W/m2
08:22 9.2 °C 9.1 °C 1017.8 hPa NNW 6.1 km/h 8.7 km/h 99% 0.0 mm 130 W/m2
08:27 9.2 °C 9.1 °C 1017.8 hPa NNW 7.2 km/h 13.4 km/h 99% 0.0 mm 83 W/m2
08:32 9.1 °C 8.9 °C 1017.8 hPa NNW 5.0 km/h 13.4 km/h 99% 0.0 mm 92 W/m2
08:37 9.5 °C 9.3 °C 1017.8 hPa North 5.0 km/h 12.2 km/h 99% 0.0 mm 182 W/m2
08:47 10.3 °C 10.2 °C 1017.8 hPa NNW 6.1 km/h 11.1 km/h 99% 0.0 mm 263 W/m2
08:57 10.5 °C 10.3 °C 1017.8 hPa NNW 5.0 km/h 9.7 km/h 99% 0.0 mm 285 W/m2
09:02 10.7 °C 10.6 °C 1017.8 hPa NNW 5.0 km/h 9.7 km/h 99% 0.0 mm 297 W/m2
09:07 10.8 °C 10.7 °C 1017.8 hPa NW 7.2 km/h 12.2 km/h 99% 0.0 mm 309 W/m2
09:12 10.8 °C 10.7 °C 1018.2 hPa NNW 6.1 km/h 13.4 km/h 99% 0.0 mm 317 W/m2
09:17 11.1 °C 10.7 °C 1017.8 hPa NNW 3.5 km/h 13.4 km/h 97% 0.0 mm 322 W/m2
09:22 11.4 °C 10.6 °C 1017.8 hPa NNW 7.2 km/h 11.1 km/h 95% 0.0 mm 319 W/m2
09:27 11.4 °C 10.3 °C 1017.8 hPa NNW 3.5 km/h 12.2 km/h 93% 0.0 mm 173 W/m2
09:32 11.9 °C 10.7 °C 1018.2 hPa NNW 7.2 km/h 12.2 km/h 92% 0.0 mm 85 W/m2
09:37 12.0 °C 10.1 °C 1018.2 hPa NNW 8.7 km/h 13.4 km/h 88% 0.0 mm 79 W/m2
09:42 11.9 °C 10.0 °C 1018.2 hPa NNW 7.2 km/h 13.4 km/h 88% 0.0 mm 76 W/m2
09:47 12.0 °C 9.7 °C 1018.2 hPa NNW 7.2 km/h 14.8 km/h 86% 0.0 mm 74 W/m2
09:52 12.0 °C 9.6 °C 1018.2 hPa NNW 7.2 km/h 14.8 km/h 85% 0.0 mm 70 W/m2
09:57 12.0 °C 9.7 °C 1018.2 hPa North 7.2 km/h 14.8 km/h 86% 0.0 mm 66 W/m2
10:02 12.3 °C 10.1 °C 1018.2 hPa North 6.1 km/h 12.2 km/h 86% 0.0 mm 75 W/m2
10:07 12.8 °C 10.3 °C 1017.8 hPa North 7.2 km/h 11.1 km/h 85% 0.0 mm 94 W/m2
10:13 12.5 °C 9.7 °C 1018.2 hPa North 6.1 km/h 12.2 km/h 83% 0.0 mm 97 W/m2
10:18 12.5 °C 9.9 °C 1017.8 hPa North 5.0 km/h 12.2 km/h 84% 0.0 mm 67 W/m2
10:23 13.0 °C 10.6 °C 1017.8 hPa North 3.5 km/h 8.7 km/h 85% 0.0 mm 58 W/m2
10:28 13.2 °C 10.7 °C 1017.8 hPa NNW 5.0 km/h 11.1 km/h 85% 0.0 mm 57 W/m2
10:33 13.8 °C 11.2 °C 1017.8 hPa NNW 5.0 km/h 11.1 km/h 84% 0.0 mm 55 W/m2
10:38 13.7 °C 10.7 °C 1017.5 hPa NNW 9.7 km/h 12.2 km/h 82% 0.0 mm 54 W/m2
10:43 13.6 °C 10.6 °C 1017.8 hPa NNW 6.1 km/h 12.2 km/h 82% 0.0 mm 57 W/m2
10:48 13.7 °C 10.7 °C 1017.8 hPa NNW 5.0 km/h 12.2 km/h 82% 0.0 mm 69 W/m2
10:53 14.2 °C 11.2 °C 1017.8 hPa NW 7.2 km/h 11.1 km/h 82% 0.0 mm 81 W/m2
10:58 13.8 °C 10.6 °C 1017.8 hPa North 7.2 km/h 12.2 km/h 81% 0.0 mm 85 W/m2
11:03 13.7 °C 10.7 °C 1017.8 hPa NNW 5.0 km/h 12.2 km/h 82% 0.0 mm 87 W/m2
11:08 14.0 °C 11.0 °C 1017.5 hPa NNW 5.0 km/h 9.7 km/h 82% 0.0 mm 87 W/m2
11:13 14.2 °C 11.0 °C 1017.5 hPa NNW 5.0 km/h 9.7 km/h 81% 0.0 mm 88 W/m2
11:18 14.6 °C 11.6 °C 1017.5 hPa NNW 6.1 km/h 11.1 km/h 82% 0.0 mm 88 W/m2
11:23 14.7 °C 11.3 °C 1017.5 hPa NW 5.0 km/h 11.1 km/h 80% 0.0 mm 86 W/m2
11:28 14.6 °C 11.2 °C 1017.5 hPa NW 3.5 km/h 11.1 km/h 80% 0.0 mm 85 W/m2
11:33 15.2 °C 11.8 °C 1017.2 hPa NNW 3.5 km/h 11.1 km/h 80% 0.0 mm 83 W/m2
11:38 15.7 °C 11.9 °C 1017.2 hPa NNW 3.5 km/h 7.2 km/h 78% 0.0 mm 81 W/m2
11:43 15.9 °C 11.7 °C 1016.8 hPa NNW 2.6 km/h 7.2 km/h 76% 0.0 mm 79 W/m2
11:48 15.9 °C 11.5 °C 1017.2 hPa NNW 3.5 km/h 8.7 km/h 75% 0.0 mm 76 W/m2
11:53 15.9 °C 11.5 °C 1016.8 hPa NNW 3.5 km/h 8.7 km/h 75% 0.0 mm 71 W/m2
11:58 16.3 °C 11.4 °C 1017.2 hPa NNW 3.5 km/h 7.2 km/h 73% 0.0 mm 70 W/m2
12:03 16.9 °C 11.8 °C 1016.8 hPa NNW 1.1 km/h 7.2 km/h 72% 0.0 mm 67 W/m2
12:08 17.8 °C 12.7 °C 1016.8 hPa Calm   5.0 km/h 72% 0.0 mm 66 W/m2
12:13 18.8 °C 12.8 °C 1016.8 hPa Calm   3.5 km/h 68% 0.0 mm 64 W/m2
12:18 20.0 °C 13.0 °C 1016.5 hPa North 1.1 km/h 5.0 km/h 64% 0.0 mm 61 W/m2
12:23 19.5 °C 11.8 °C 1016.5 hPa ENE 2.6 km/h 5.0 km/h 61% 0.0 mm 58 W/m2
12:28 19.1 °C 11.4 °C 1016.5 hPa East 1.1 km/h 5.0 km/h 61% 0.0 mm 58 W/m2
12:33 19.4 °C 11.7 °C 1016.5 hPa ESE 1.1 km/h 5.0 km/h 61% 0.0 mm 56 W/m2
12:38 19.2 °C 11.0 °C 1016.5 hPa SE 3.5 km/h 7.2 km/h 59% 0.0 mm 56 W/m2
12:43 19.3 °C 11.3 °C 1016.1 hPa SE 2.6 km/h 7.2 km/h 60% 0.0 mm 56 W/m2
12:48 19.4 °C 11.4 °C 1016.1 hPa SE 3.5 km/h 6.1 km/h 60% 0.0 mm 56 W/m2
12:53 19.0 °C 11.1 °C 1016.1 hPa SSE 2.6 km/h 6.1 km/h 60% 0.0 mm 57 W/m2
12:58 19.2 °C 12.2 °C 1016.5 hPa SE 3.5 km/h 7.2 km/h 64% 0.0 mm 59 W/m2
13:03 18.3 °C 11.6 °C 1016.1 hPa SSE 5.0 km/h 9.7 km/h 65% 0.0 mm 59 W/m2
13:08 18.6 °C 12.4 °C 1016.1 hPa SE 3.5 km/h 9.7 km/h 67% 0.0 mm 59 W/m2
13:13 18.4 °C 11.9 °C 1015.8 hPa SE 3.5 km/h 8.7 km/h 66% 0.0 mm 59 W/m2
13:18 18.4 °C 12.2 °C 1015.8 hPa SE 5.0 km/h 8.7 km/h 67% 0.0 mm 60 W/m2
13:23 18.2 °C 11.8 °C 1015.8 hPa SSE 3.5 km/h 9.7 km/h 66% 0.0 mm 60 W/m2
13:28 18.2 °C 12.0 °C 1015.8 hPa South 6.1 km/h 9.7 km/h 67% 0.0 mm 62 W/m2
13:33 17.7 °C 11.7 °C 1015.8 hPa South 7.2 km/h 9.7 km/h 68% 0.0 mm 64 W/m2
13:38 17.3 °C 11.8 °C 1015.8 hPa SSE 5.0 km/h 12.2 km/h 70% 0.0 mm 66 W/m2
13:43 17.6 °C 12.1 °C 1015.8 hPa SSE 5.0 km/h 12.2 km/h 70% 0.0 mm 70 W/m2
13:48 17.6 °C 11.6 °C 1015.5 hPa SSE 5.0 km/h 11.1 km/h 68% 0.0 mm 72 W/m2
13:53 17.8 °C 12.3 °C 1015.5 hPa SSE 3.5 km/h 11.1 km/h 70% 0.0 mm 73 W/m2
13:58 18.1 °C 12.1 °C 1015.5 hPa SSE 7.2 km/h 9.7 km/h 68% 0.0 mm 75 W/m2
14:03 18.5 °C 12.3 °C 1015.5 hPa SSE 3.5 km/h 9.7 km/h 67% 0.0 mm 84 W/m2
14:08 18.2 °C 12.0 °C 1015.5 hPa SSE 5.0 km/h 9.7 km/h 67% 0.0 mm 125 W/m2
14:13 18.1 °C 12.1 °C 1015.5 hPa SSE 6.1 km/h 11.1 km/h 68% 0.0 mm 218 W/m2
14:18 18.1 °C 12.3 °C 1015.5 hPa SSE 3.5 km/h 11.1 km/h 69% 0.0 mm 271 W/m2
14:23 18.6 °C 12.6 °C 1015.1 hPa SSE 5.0 km/h 8.7 km/h 68% 0.0 mm 269 W/m2
14:28 19.0 °C 12.7 °C 1015.5 hPa SSE 5.0 km/h 7.2 km/h 67% 0.0 mm 265 W/m2
14:33 19.0 °C 12.5 °C 1015.5 hPa SE 3.5 km/h 7.2 km/h 66% 0.0 mm 260 W/m2
14:38 19.2 °C 12.7 °C 1015.5 hPa SE 3.5 km/h 7.2 km/h 66% 0.0 mm 254 W/m2
14:43 19.8 °C 13.3 °C 1015.1 hPa SE 2.6 km/h 6.1 km/h 66% 0.0 mm 250 W/m2
14:48 20.2 °C 12.9 °C 1015.1 hPa ESE 1.1 km/h 6.1 km/h 63% 0.0 mm 244 W/m2
14:53 20.2 °C 12.9 °C 1014.8 hPa ESE 2.6 km/h 6.1 km/h 63% 0.0 mm 237 W/m2
14:58 19.9 °C 12.9 °C 1015.1 hPa Calm   6.1 km/h 64% 0.0 mm 231 W/m2
15:03 20.5 °C 13.0 °C 1014.8 hPa East 5.0 km/h 6.1 km/h 62% 0.0 mm 222 W/m2
15:08 19.6 °C 11.6 °C 1014.8 hPa East 5.0 km/h 8.7 km/h 60% 0.0 mm 214 W/m2
15:14 19.0 °C 12.1 °C 1015.1 hPa East 3.5 km/h 8.7 km/h 64% 0.0 mm 206 W/m2
15:19 18.9 °C 12.4 °C 1015.1 hPa East 3.5 km/h 8.7 km/h 66% 0.0 mm 193 W/m2
15:24 18.8 °C 12.3 °C 1014.8 hPa East 2.6 km/h 8.7 km/h 66% 0.0 mm 181 W/m2
15:29 19.0 °C 12.3 °C 1015.1 hPa East 2.6 km/h 6.1 km/h 65% 0.0 mm 166 W/m2
15:34 19.1 °C 12.4 °C 1014.8 hPa ESE 1.1 km/h 5.0 km/h 65% 0.0 mm 152 W/m2
15:39 19.3 °C 12.6 °C 1015.1 hPa SE 1.1 km/h 6.1 km/h 65% 0.0 mm 101 W/m2
15:44 19.1 °C 12.4 °C 1014.8 hPa SE 1.1 km/h 6.1 km/h 65% 0.0 mm 82 W/m2
15:49 18.8 °C 12.6 °C 1014.8 hPa Calm   3.5 km/h 67% 0.0 mm 84 W/m2
15:54 18.7 °C 12.4 °C 1014.8 hPa Calm   5.0 km/h 67% 0.0 mm 57 W/m2
16:04 17.0 °C 11.7 °C 1014.8 hPa SE 2.6 km/h 5.0 km/h 71% 0.0 mm 27 W/m2
16:09 15.9 °C 11.3 °C 1014.8 hPa SE 1.1 km/h 5.0 km/h 74% 0.0 mm 22 W/m2
16:14 15.4 °C 11.2 °C 1014.8 hPa SE 1.1 km/h 5.0 km/h 76% 0.0 mm 19 W/m2
16:20 14.8 °C 11.4 °C 1014.8 hPa Calm   5.0 km/h 80% 0.0 mm 24 W/m2
16:25 15.3 °C 11.9 °C 1014.8 hPa Calm   3.5 km/h 80% 0.0 mm 16 W/m2
16:30 15.3 °C 11.7 °C 1014.8 hPa SE 1.1 km/h 2.6 km/h 79% 0.0 mm 13 W/m2
16:35 14.7 °C 11.3 °C 1014.8 hPa SE 1.1 km/h 3.5 km/h 80% 0.0 mm 13 W/m2
16:40 14.3 °C 10.9 °C 1014.8 hPa SE 1.1 km/h 3.5 km/h 80% 0.0 mm 13 W/m2
16:46 14.0 °C 10.6 °C 1014.4 hPa South 2.6 km/h 3.5 km/h 80% 0.0 mm 8 W/m2
16:51 13.7 °C 10.5 °C 1014.4 hPa South 1.1 km/h 3.5 km/h 81% 0.0 mm 5 W/m2
16:56 13.5 °C 10.1 °C 1014.4 hPa SSE 1.1 km/h 3.5 km/h 80% 0.0 mm 2 W/m2
17:01 13.4 °C 10.0 °C 1014.8 hPa Calm   3.5 km/h 80% 0.0 mm 0 W/m2
17:06 13.2 °C 9.7 °C 1014.8 hPa Calm   2.6 km/h 79% 0.0 mm 0 W/m2
17:11 12.8 °C 9.8 °C 1014.8 hPa Calm   2.6 km/h 82% 0.0 mm 0 W/m2
17:16 12.5 °C 9.5 °C 1014.4 hPa Calm   2.6 km/h 82% 0.0 mm 0 W/m2
17:21 12.1 °C 9.3 °C 1014.8 hPa Calm   2.6 km/h 83% 0.0 mm 0 W/m2
17:26 11.9 °C 9.3 °C 1014.8 hPa NNE 1.1 km/h 2.6 km/h 84% 0.0 mm 0 W/m2
17:31 11.8 °C 9.7 °C 1014.8 hPa North 1.1 km/h 3.5 km/h 87% 0.0 mm 0 W/m2
17:36 11.8 °C 10.1 °C 1014.8 hPa North 2.6 km/h 5.0 km/h 89% 0.0 mm 0 W/m2
17:41 11.9 °C 10.7 °C 1014.8 hPa North 1.1 km/h 5.0 km/h 92% 0.0 mm 0 W/m2
17:46 11.9 °C 10.7 °C 1014.8 hPa North 1.1 km/h 3.5 km/h 92% 0.0 mm 0 W/m2
17:51 11.6 °C 10.5 °C 1014.8 hPa NNW 1.1 km/h 3.5 km/h 93% 0.0 mm 0 W/m2
17:56 11.4 °C 10.4 °C 1014.8 hPa Calm   3.5 km/h 94% 0.0 mm 0 W/m2
18:01 11.3 °C 10.4 °C 1014.8 hPa North 1.1 km/h 2.6 km/h 94% 0.0 mm 0 W/m2
18:06 11.4 °C 10.4 °C 1014.8 hPa NNW 2.6 km/h 3.5 km/h 94% 0.0 mm 0 W/m2
18:11 11.1 °C 10.2 °C 1014.8 hPa North 2.6 km/h 3.5 km/h 94% 0.0 mm 0 W/m2
18:16 10.9 °C 10.1 °C 1014.8 hPa North 2.6 km/h 5.0 km/h 95% 0.0 mm 0 W/m2
18:21 10.7 °C 10.1 °C 1014.8 hPa North 1.1 km/h 5.0 km/h 96% 0.0 mm 0 W/m2
18:26 10.6 °C 10.0 °C 1014.8 hPa NNE 1.1 km/h 5.0 km/h 96% 0.0 mm 0 W/m2
18:31 10.6 °C 10.0 °C 1014.8 hPa NE 1.1 km/h 5.0 km/h 96% 0.0 mm 0 W/m2
18:36 10.7 °C 10.1 °C 1015.1 hPa NE 1.1 km/h 5.0 km/h 96% 0.0 mm 0 W/m2
18:41 10.7 °C 10.2 °C 1014.8 hPa North 2.6 km/h 5.0 km/h 97% 0.0 mm 0 W/m2
18:46 10.6 °C 10.2 °C 1015.1 hPa Calm   5.0 km/h 97% 0.0 mm 0 W/m2
18:51 10.5 °C 10.1 °C 1015.1 hPa Calm   5.0 km/h 97% 0.0 mm 0 W/m2
18:56 10.4 °C 9.9 °C 1015.1 hPa NNW 1.1 km/h 3.5 km/h 97% 0.0 mm 0 W/m2
19:01 10.4 °C 9.9 °C 1015.1 hPa NNW 1.1 km/h 3.5 km/h 97% 0.0 mm 0 W/m2
19:06 10.4 °C 9.9 °C 1015.1 hPa NNW 1.1 km/h 3.5 km/h 97% 0.0 mm 0 W/m2
19:11 10.3 °C 9.8 °C 1015.1 hPa NNW 1.1 km/h 3.5 km/h 97% 0.0 mm 0 W/m2
19:16 10.1 °C 9.8 °C 1014.8 hPa NNW 1.1 km/h 5.0 km/h 98% 0.0 mm 0 W/m2
19:21 10.0 °C 9.7 °C 1015.1 hPa NNW 3.5 km/h 5.0 km/h 98% 0.0 mm 0 W/m2
19:26 10.0 °C 9.7 °C 1015.1 hPa NNW 1.1 km/h 5.0 km/h 98% 0.0 mm 0 W/m2
19:31 9.8 °C 9.7 °C 1014.8 hPa North 1.1 km/h 5.0 km/h 99% 0.0 mm 0 W/m2
19:36 9.8 °C 9.7 °C 1015.1 hPa North 1.1 km/h 3.5 km/h 99% 0.0 mm 0 W/m2
19:41 9.8 °C 9.7 °C 1014.8 hPa NW 1.1 km/h 3.5 km/h 99% 0.0 mm 0 W/m2
19:46 9.7 °C 9.6 °C 1014.8 hPa Calm   3.5 km/h 99% 0.0 mm 0 W/m2
19:51 9.5 °C 9.3 °C 1014.8 hPa NNE 1.1 km/h 2.6 km/h 99% 0.0 mm 0 W/m2
19:56 9.6 °C 9.4 °C 1014.8 hPa NE 1.1 km/h 2.6 km/h 99% 0.0 mm 0 W/m2
20:01 9.6 °C 9.4 °C 1014.8 hPa NNE 1.1 km/h 3.5 km/h 99% 0.0 mm 0 W/m2
20:06 9.6 °C 9.4 °C 1014.8 hPa NNW 3.5 km/h 5.0 km/h 99% 0.0 mm 0 W/m2
20:11 9.5 °C 9.3 °C 1014.8 hPa NW 3.5 km/h 5.0 km/h 99% 0.0 mm 0 W/m2
20:16 9.5 °C 9.3 °C 1014.8 hPa NW 2.6 km/h 6.1 km/h 99% 0.0 mm 0 W/m2
20:21 9.4 °C 9.3 °C 1014.8 hPa NW 3.5 km/h 6.1 km/h 99% 0.0 mm 0 W/m2
20:26 9.3 °C 9.2 °C 1014.8 hPa NNW 2.6 km/h 6.1 km/h 99% 0.0 mm 0 W/m2
20:31 9.2 °C 9.1 °C 1014.8 hPa North 3.5 km/h 5.0 km/h 99% 0.0 mm 0 W/m2
20:36 9.1 °C 8.9 °C 1014.8 hPa NNW 2.6 km/h 5.0 km/h 99% 0.0 mm 0 W/m2
20:41 9.0 °C 8.8 °C 1014.8 hPa NNW 1.1 km/h 5.0 km/h 99% 0.0 mm 0 W/m2
20:46 9.0 °C 8.8 °C 1014.8 hPa North 1.1 km/h 5.0 km/h 99% 0.0 mm 0 W/m2
20:51 9.1 °C 8.9 °C 1014.8 hPa North 3.5 km/h 5.0 km/h 99% 0.0 mm 0 W/m2
20:56 9.2 °C 9.1 °C 1014.8 hPa NNW 3.5 km/h 6.1 km/h 99% 0.0 mm 0 W/m2
21:01 9.1 °C 8.9 °C 1014.8 hPa NW 6.1 km/h 7.2 km/h 99% 0.0 mm 0 W/m2
21:06 9.0 °C 8.8 °C 1014.8 hPa NW 3.5 km/h 7.2 km/h 99% 0.0 mm 0 W/m2
21:11 8.8 °C 8.7 °C 1014.8 hPa NW 6.1 km/h 7.2 km/h 99% 0.0 mm 0 W/m2
21:16 8.7 °C 8.6 °C 1014.8 hPa NNW 5.0 km/h 7.2 km/h 99% 0.0 mm 0 W/m2
21:21 8.8 °C 8.7 °C 1014.8 hPa NNW 5.0 km/h 7.2 km/h 99% 0.0 mm 0 W/m2
21:26 8.8 °C 8.7 °C 1014.8 hPa North 3.5 km/h 7.2 km/h 99% 0.0 mm 0 W/m2
21:31 8.8 °C 8.7 °C 1014.8 hPa NNW 5.0 km/h 8.7 km/h 99% 0.0 mm 0 W/m2
21:36 8.7 °C 8.6 °C 1014.8 hPa NW 2.6 km/h 8.7 km/h 99% 0.0 mm 0 W/m2
21:41 8.6 °C 8.4 °C 1014.8 hPa NW 2.6 km/h 7.2 km/h 99% 0.0 mm 0 W/m2
21:46 8.5 °C 8.3 °C 1014.8 hPa NNW 3.5 km/h 6.1 km/h 99% 0.0 mm 0 W/m2
21:51 8.4 °C 8.3 °C 1014.8 hPa NNW 2.6 km/h 6.1 km/h 99% 0.0 mm 0 W/m2
21:56 8.3 °C 8.2 °C 1014.8 hPa NNW 5.0 km/h 7.2 km/h 99% 0.0 mm 0 W/m2
22:01 8.4 °C 8.3 °C 1014.8 hPa NNW 3.5 km/h 7.2 km/h 99% 0.0 mm 0 W/m2
22:06 8.5 °C 8.3 °C 1014.8 hPa NNW 5.0 km/h 7.2 km/h 99% 0.0 mm 0 W/m2
22:11 8.6 °C 8.4 °C 1014.8 hPa NNW 5.0 km/h 9.7 km/h 99% 0.0 mm 0 W/m2
22:16 8.8 °C 8.7 °C 1014.8 hPa NNW 5.0 km/h 11.1 km/h 99% 0.0 mm 0 W/m2
22:21 8.8 °C 8.7 °C 1014.8 hPa NNW 6.1 km/h 11.1 km/h 99% 0.0 mm 0 W/m2
22:26 8.7 °C 8.6 °C 1014.8 hPa NNW 3.5 km/h 9.7 km/h 99% 0.0 mm 0 W/m2
22:31 8.7 °C 8.6 °C 1014.8 hPa NNW 8.7 km/h 11.1 km/h 99% 0.0 mm 0 W/m2
22:36 8.7 °C 8.6 °C 1014.8 hPa NNW 8.7 km/h 12.2 km/h 99% 0.0 mm 0 W/m2
22:41 8.8 °C 8.7 °C 1014.8 hPa NNW 11.1 km/h 18.3 km/h 99% 0.0 mm 0 W/m2
22:46 8.9 °C 8.8 °C 1014.8 hPa NNW 8.7 km/h 18.3 km/h 99% 0.0 mm 0 W/m2
22:51 8.8 °C 8.7 °C 1014.8 hPa NNW 8.7 km/h 15.8 km/h 99% 0.0 mm 0 W/m2
22:56 8.6 °C 8.4 °C 1014.4 hPa NNW 3.5 km/h 13.4 km/h 99% 0.0 mm 0 W/m2
23:01 8.5 °C 8.3 °C 1014.8 hPa North 6.1 km/h 12.2 km/h 99% 0.0 mm 0 W/m2
23:06 8.3 °C 8.2 °C 1014.4 hPa NNW 3.5 km/h 8.7 km/h 99% 0.0 mm 0 W/m2
23:11 8.2 °C 8.1 °C 1014.8 hPa NNW 5.0 km/h 9.7 km/h 99% 0.0 mm 0 W/m2
23:16 8.3 °C 8.2 °C 1014.8 hPa NNW 6.1 km/h 9.7 km/h 99% 0.0 mm 0 W/m2
23:21 8.3 °C 8.2 °C 1014.4 hPa NNW 5.0 km/h 12.2 km/h 99% 0.0 mm 0 W/m2
23:26 8.3 °C 8.2 °C 1014.4 hPa NNW 6.1 km/h 12.2 km/h 99% 0.0 mm 0 W/m2
23:31 8.4 °C 8.3 °C 1014.4 hPa NW 6.1 km/h 12.2 km/h 99% 0.0 mm 0 W/m2
23:36 8.4 °C 8.3 °C 1014.4 hPa NNW 7.2 km/h 12.2 km/h 99% 0.0 mm 0 W/m2
23:41 8.3 °C 8.2 °C 1014.4 hPa NNW 6.1 km/h 12.2 km/h 99% 0.0 mm 0 W/m2
23:46 8.3 °C 8.2 °C 1014.4 hPa NNW 6.1 km/h 11.1 km/h 99% 0.0 mm 0 W/m2
23:51 8.3 °C 8.2 °C 1014.4 hPa NNW 8.7 km/h 13.4 km/h 99% 0.0 mm 0 W/m2
23:56 8.3 °C 8.2 °C 1014.4 hPa NNW 9.7 km/h 13.4 km/h 99% 0.0 mm 0 W/m2
Northern Hawkes Bay. New Zealand Historic Data
Compliments of Weather Underground - 2 mb